KRAP/RAP METAR and TAF weather

Enter ICAO airport designator
Station Type Date Time Source
KRAP METAR 2019/10/18 10:52 UTC NOAA

KRAP 181052Z AUTO 33024G37KT 10SM CLR 12/01 A2949 RMK AO2 PK WND 33037/1045 SLP973 T01220011 $


Station Type Date Time Source
KRAP Decoded METAR 2019/10/18 10:52 UTC NOAA

RAPID CITY REGIONAL AIRPORT , SD, United States (KRAP) 44-03N 103-03W 965M
Oct 18, 2019 - 06:52 AM EDT / 2019.10.18 1052 UTC
Wind: from the NNW (330 degrees) at 28 MPH (24 KT) gusting to 43 MPH (37 KT):0
Visibility: 10 mile(s):0
Sky conditions: clear
Temperature: 54.0 F (12.2 C)
Dew Point: 34.0 F (1.1 C)
Relative Humidity: 46%
Pressure (altimeter): 29.49 in. Hg (998 hPa)
ob: KRAP 181052Z AUTO 33024G37KT 10SM CLR 12/01 A2949 RMK AO2 PK WND 33037/1045 SLP973 T01220011
cycle: 11

Station Type Date Time Source
KRAP TAF 2019/10/18 12:22 UTC NOAA

TAF KRAP 181120Z 1812/1912 34024G34KT P6SM BKN150
FM182300 32009KT P6SM FEW250

Example: see airport list